Hlavní strana
METAR-TAF:

METAR-TAF

Letiště :

Záporoží, Ukrajina

zeměpisná šířka: 47-52-02N, zeměpisná délka: 035-18-59E, výška: 114 m

Aktuální stav počasí

Zpráva byla vytvořena před 29 minutami, v 00:30 UTC
Jižní vítr 12 kt
Teplota 11°C
Vlhkost vzduchu 87%
Tlak 1013 hPa
Viditelnost 10 km a více
Oblačno až skoro zataženo ve výšce 2000 ft

METAR: UKDE 220030Z 19006MPS 9999 BKN020 11/09 Q1013 R20/090070 NOSIG

Čas: 03:59 (00:59 UTC)

Předpověď počasí

Zpráva byla vytvořena před 1 hodinou a 57 minutami, v 23:02 UTC
Předpověď platná od 22 v 00 UTC do 22 v 09 UTC
Jižní vítr 14 kt
Viditelnost 10 km a více
Oblačno až skoro zataženo ve výšce 1500 ft
Dočasný
od 22 v 00 UTC do 22 v 03 UTC
Jihozápadní vítr 17 kt s nárazy do 27 kt
Oblačno až skoro zataženo ve výšce 700 ft
Dočasný
od 22 v 03 UTC do 22 v 06 UTC
Viditelnost: 3100 m
Oblačno až skoro zataženo ve výšce 700 ft
kouřmo

TAF: UKDE 212302Z 2200/2209 19007MPS 9999 BKN015 TEMPO 2200/2203 22009G14MPS BKN007 TEMPO 2203/2206 3100 BR BKN007

Stav a předpovědi počasí z více než 4 000 letišť (zprávy METAR a TAF).

Červené a žluté tečky na mapě představují dostupné meteorologické stanice.

Když kurzor umístíte na tečku, zobrazí se název stanice.

Pak kliknutím zobrazíte stav a předpověď počasí.

Chcete-li změnit mapu, kliknutím na zelené tlačítko se znaménkem +mapu přiblížíte, kliknutím na zelené tlačítko se znaménkem – mapu oddálíte a kliknutím na zelené šipky přejdete na sousední mapy.


METAR-TAF: